sensor_id;sensor_type;location;lat;lon;timestamp;pressure;altitude;pressure_sealevel;temperature;humidity
81608;BME280;71022;48.122;11.576;2024-02-14T00:01:20;96044.47;;;4.59;67.32
81608;BME280;71022;48.122;11.576;2024-02-14T00:03:48;96045.28;;;4.46;67.75
81608;BME280;71022;48.122;11.576;2024-02-14T00:06:15;96049.94;;;4.59;67.58
81608;BME280;71022;48.122;11.576;2024-02-14T00:08:43;96057.06;;;4.55;67.62
81608;BME280;71022;48.122;11.576;2024-02-14T00:11:10;96053.13;;;4.61;67.60
81608;BME280;71022;48.122;11.576;2024-02-14T00:13:37;96055.13;;;4.69;67.15
81608;BME280;71022;48.122;11.576;2024-02-14T00:16:05;96044.94;;;4.88;66.87
81608;BME280;71022;48.122;11.576;2024-02-14T00:18:33;96046.41;;;4.94;66.09
81608;BME280;71022;48.122;11.576;2024-02-14T00:21:01;96052.28;;;4.88;66.39
81608;BME280;71022;48.122;11.576;2024-02-14T00:23:28;96057.75;;;4.74;66.94
81608;BME280;71022;48.122;11.576;2024-02-14T00:25:55;96057.91;;;4.91;65.78
81608;BME280;71022;48.122;11.576;2024-02-14T00:28:23;96046.91;;;4.96;65.98
81608;BME280;71022;48.122;11.576;2024-02-14T00:30:53;96049.03;;;4.99;65.88
81608;BME280;71022;48.122;11.576;2024-02-14T00:33:20;96054.13;;;5.15;65.31
81608;BME280;71022;48.122;11.576;2024-02-14T00:35:49;96059.91;;;4.99;65.58
81608;BME280;71022;48.122;11.576;2024-02-14T00:38:16;96055.69;;;4.93;65.56
81608;BME280;71022;48.122;11.576;2024-02-14T00:40:43;96054.47;;;4.99;66.10
81608;BME280;71022;48.122;11.576;2024-02-14T00:43:11;96056.47;;;5.08;65.37
81608;BME280;71022;48.122;11.576;2024-02-14T00:45:39;96055.88;;;5.11;65.53
81608;BME280;71022;48.122;11.576;2024-02-14T00:48:06;96057.78;;;5.10;65.95
81608;BME280;71022;48.122;11.576;2024-02-14T00:50:34;96054.84;;;5.07;65.86
81608;BME280;71022;48.122;11.576;2024-02-14T00:53:02;96057.09;;;5.05;66.05
81608;BME280;71022;48.122;11.576;2024-02-14T00:55:29;96056.84;;;5.15;65.62
81608;BME280;71022;48.122;11.576;2024-02-14T00:57:56;96059.06;;;5.13;65.58
81608;BME280;71022;48.122;11.576;2024-02-14T01:00:23;96058.47;;;5.16;65.16
81608;BME280;71022;48.122;11.576;2024-02-14T01:02:51;96057.69;;;5.01;65.02
81608;BME280;71022;48.122;11.576;2024-02-14T01:05:18;96061.06;;;5.21;65.70
81608;BME280;71022;48.122;11.576;2024-02-14T01:07:46;96063.03;;;5.29;64.53
81608;BME280;71022;48.122;11.576;2024-02-14T01:10:13;96066.38;;;5.26;64.44
81608;BME280;71022;48.122;11.576;2024-02-14T01:12:41;96062.47;;;5.18;65.25
81608;BME280;71022;48.122;11.576;2024-02-14T01:15:08;96062.53;;;5.27;64.15
81608;BME280;71022;48.122;11.576;2024-02-14T01:17:35;96063.97;;;5.24;65.02
81608;BME280;71022;48.122;11.576;2024-02-14T01:20:06;96059.63;;;5.23;64.13
81608;BME280;71022;48.122;11.576;2024-02-14T01:22:35;96060.44;;;5.24;64.56
81608;BME280;71022;48.122;11.576;2024-02-14T01:25:03;96054.38;;;5.27;65.13
81608;BME280;71022;48.122;11.576;2024-02-14T01:27:31;96062.13;;;5.33;64.25
81608;BME280;71022;48.122;11.576;2024-02-14T01:29:59;96057.53;;;5.42;63.75
81608;BME280;71022;48.122;11.576;2024-02-14T01:32:26;96066.94;;;5.58;63.87
81608;BME280;71022;48.122;11.576;2024-02-14T01:34:56;96065.53;;;5.61;63.08
81608;BME280;71022;48.122;11.576;2024-02-14T01:37:23;96063.91;;;5.60;63.39
81608;BME280;71022;48.122;11.576;2024-02-14T01:39:50;96064.34;;;5.53;63.67
81608;BME280;71022;48.122;11.576;2024-02-14T01:42:18;96069.78;;;5.53;63.62
81608;BME280;71022;48.122;11.576;2024-02-14T01:44:45;96070.41;;;5.50;63.10
81608;BME280;71022;48.122;11.576;2024-02-14T01:47:13;96070.84;;;5.44;63.87
81608;BME280;71022;48.122;11.576;2024-02-14T01:49:40;96067.50;;;5.47;63.10
81608;BME280;71022;48.122;11.576;2024-02-14T01:52:11;96054.81;;;5.42;63.42
81608;BME280;71022;48.122;11.576;2024-02-14T01:54:39;96056.59;;;5.47;63.26
81608;BME280;71022;48.122;11.576;2024-02-14T01:57:07;96064.53;;;5.57;64.29
81608;BME280;71022;48.122;11.576;2024-02-14T01:59:35;96067.75;;;5.59;62.84
81608;BME280;71022;48.122;11.576;2024-02-14T02:02:03;96070.22;;;5.47;63.04
81608;BME280;71022;48.122;11.576;2024-02-14T02:04:36;96074.31;;;5.36;63.53
81608;BME280;71022;48.122;11.576;2024-02-14T02:07:03;96067.00;;;5.45;63.10
81608;BME280;71022;48.122;11.576;2024-02-14T02:09:31;96066.59;;;5.51;62.96
81608;BME280;71022;48.122;11.576;2024-02-14T02:11:59;96069.50;;;5.55;62.82
81608;BME280;71022;48.122;11.576;2024-02-14T02:14:28;96069.22;;;5.65;62.06
81608;BME280;71022;48.122;11.576;2024-02-14T02:16:56;96073.53;;;5.57;62.80
81608;BME280;71022;48.122;11.576;2024-02-14T02:19:24;96070.69;;;5.40;63.38
81608;BME280;71022;48.122;11.576;2024-02-14T02:21:51;96071.97;;;5.43;62.37
81608;BME280;71022;48.122;11.576;2024-02-14T02:24:19;96070.22;;;5.47;62.61
81608;BME280;71022;48.122;11.576;2024-02-14T02:26:46;96073.16;;;5.73;62.05
81608;BME280;71022;48.122;11.576;2024-02-14T02:29:14;96074.19;;;5.63;62.60
81608;BME280;71022;48.122;11.576;2024-02-14T02:31:43;96072.56;;;5.62;62.59
81608;BME280;71022;48.122;11.576;2024-02-14T02:34:10;96075.44;;;5.57;62.97
81608;BME280;71022;48.122;11.576;2024-02-14T02:36:39;96076.09;;;5.85;61.41
81608;BME280;71022;48.122;11.576;2024-02-14T02:39:06;96065.03;;;5.59;63.12
81608;BME280;71022;48.122;11.576;2024-02-14T02:41:34;96070.59;;;5.54;62.75
81608;BME280;71022;48.122;11.576;2024-02-14T02:44:02;96073.28;;;5.45;63.04
81608;BME280;71022;48.122;11.576;2024-02-14T02:46:29;96069.53;;;5.41;63.06
81608;BME280;71022;48.122;11.576;2024-02-14T02:48:56;96067.63;;;5.42;63.28
81608;BME280;71022;48.122;11.576;2024-02-14T02:51:25;96071.22;;;5.51;62.99
81608;BME280;71022;48.122;11.576;2024-02-14T02:53:54;96078.28;;;5.52;62.44
81608;BME280;71022;48.122;11.576;2024-02-14T02:56:21;96074.81;;;5.60;62.45
81608;BME280;71022;48.122;11.576;2024-02-14T02:58:49;96073.25;;;5.68;61.95
81608;BME280;71022;48.122;11.576;2024-02-14T03:01:16;96079.03;;;5.66;61.69
81608;BME280;71022;48.122;11.576;2024-02-14T03:03:43;96080.06;;;5.56;62.21
81608;BME280;71022;48.122;11.576;2024-02-14T03:06:10;96073.19;;;5.59;62.67
81608;BME280;71022;48.122;11.576;2024-02-14T03:08:39;96081.50;;;5.54;61.93
81608;BME280;71022;48.122;11.576;2024-02-14T03:11:07;96071.34;;;5.46;61.93
81608;BME280;71022;48.122;11.576;2024-02-14T03:13:34;96072.91;;;5.61;61.97
81608;BME280;71022;48.122;11.576;2024-02-14T03:16:03;96070.22;;;5.47;62.25
81608;BME280;71022;48.122;11.576;2024-02-14T03:18:31;96076.78;;;5.68;62.18
81608;BME280;71022;48.122;11.576;2024-02-14T03:20:59;96084.03;;;5.50;62.15
81608;BME280;71022;48.122;11.576;2024-02-14T03:23:26;96088.41;;;5.38;61.44
81608;BME280;71022;48.122;11.576;2024-02-14T03:25:55;96074.13;;;5.32;62.77
81608;BME280;71022;48.122;11.576;2024-02-14T03:28:22;96082.00;;;5.34;62.53
81608;BME280;71022;48.122;11.576;2024-02-14T03:30:49;96083.34;;;5.45;62.09
81608;BME280;71022;48.122;11.576;2024-02-14T03:33:16;96083.50;;;5.40;62.01
81608;BME280;71022;48.122;11.576;2024-02-14T03:35:44;96079.38;;;5.29;61.82
81608;BME280;71022;48.122;11.576;2024-02-14T03:38:12;96083.16;;;5.41;61.79
81608;BME280;71022;48.122;11.576;2024-02-14T03:40:41;96082.34;;;5.41;61.83
81608;BME280;71022;48.122;11.576;2024-02-14T03:43:09;96083.34;;;5.45;61.55
81608;BME280;71022;48.122;11.576;2024-02-14T03:45:39;96072.59;;;5.40;61.09
81608;BME280;71022;48.122;11.576;2024-02-14T03:48:06;96083.34;;;5.45;61.64
81608;BME280;71022;48.122;11.576;2024-02-14T03:50:33;96077.63;;;5.46;61.57
81608;BME280;71022;48.122;11.576;2024-02-14T03:53:01;96083.34;;;5.45;60.67
81608;BME280;71022;48.122;11.576;2024-02-14T03:55:31;96085.78;;;5.46;61.51
81608;BME280;71022;48.122;11.576;2024-02-14T03:57:58;96090.16;;;5.34;61.15
81608;BME280;71022;48.122;11.576;2024-02-14T04:00:26;96086.22;;;5.40;60.64
81608;BME280;71022;48.122;11.576;2024-02-14T04:02:53;96082.94;;;5.51;60.75
81608;BME280;71022;48.122;11.576;2024-02-14T04:05:25;96097.09;;;5.40;60.90
81608;BME280;71022;48.122;11.576;2024-02-14T04:07:56;96085.81;;;5.33;61.52
81608;BME280;71022;48.122;11.576;2024-02-14T04:10:23;96087.06;;;5.27;62.09
81608;BME280;71022;48.122;11.576;2024-02-14T04:12:51;96083.31;;;5.23;61.53
81608;BME280;71022;48.122;11.576;2024-02-14T04:15:18;96069.34;;;5.16;61.99
81608;BME280;71022;48.122;11.576;2024-02-14T04:17:45;96088.41;;;5.02;63.21
81608;BME280;71022;48.122;11.576;2024-02-14T04:20:12;96081.47;;;5.10;62.61
81608;BME280;71022;48.122;11.576;2024-02-14T04:22:40;96074.66;;;4.98;62.25
81608;BME280;71022;48.122;11.576;2024-02-14T04:25:07;96078.63;;;5.15;61.85
81608;BME280;71022;48.122;11.576;2024-02-14T04:27:34;96073.41;;;5.05;61.88
81608;BME280;71022;48.122;11.576;2024-02-14T04:30:02;96074.91;;;5.11;62.07
81608;BME280;71022;48.122;11.576;2024-02-14T04:32:29;96068.16;;;5.08;61.95
81608;BME280;71022;48.122;11.576;2024-02-14T04:34:56;96075.22;;;5.09;61.41
81608;BME280;71022;48.122;11.576;2024-02-14T04:37:25;96069.63;;;5.14;61.76
81608;BME280;71022;48.122;11.576;2024-02-14T04:39:52;96080.25;;;5.16;61.82
81608;BME280;71022;48.122;11.576;2024-02-14T04:42:20;96075.09;;;5.14;61.49
81608;BME280;71022;48.122;11.576;2024-02-14T04:44:47;96073.28;;;5.10;61.74
81608;BME280;71022;48.122;11.576;2024-02-14T04:47:14;96078.13;;;5.35;61.34
81608;BME280;71022;48.122;11.576;2024-02-14T04:49:42;96079.44;;;5.15;60.70
81608;BME280;71022;48.122;11.576;2024-02-14T04:52:09;96078.63;;;5.15;61.39
81608;BME280;71022;48.122;11.576;2024-02-14T04:54:36;96077.84;;;5.00;61.73
81608;BME280;71022;48.122;11.576;2024-02-14T04:57:03;96075.13;;;5.00;61.20
81608;BME280;71022;48.122;11.576;2024-02-14T04:59:31;96076.56;;;5.20;60.58
81608;BME280;71022;48.122;11.576;2024-02-14T05:01:59;96072.88;;;5.16;60.67
81608;BME280;71022;48.122;11.576;2024-02-14T05:04:26;96068.94;;;5.22;60.96
81608;BME280;71022;48.122;11.576;2024-02-14T05:06:55;96081.38;;;5.37;60.32
81608;BME280;71022;48.122;11.576;2024-02-14T05:09:25;96066.00;;;5.41;60.33
81608;BME280;71022;48.122;11.576;2024-02-14T05:11:53;96071.22;;;5.51;60.06
81608;BME280;71022;48.122;11.576;2024-02-14T05:14:20;96072.47;;;5.45;60.47
81608;BME280;71022;48.122;11.576;2024-02-14T05:16:47;96074.19;;;5.41;60.42
81608;BME280;71022;48.122;11.576;2024-02-14T05:19:14;96065.66;;;5.34;60.37
81608;BME280;71022;48.122;11.576;2024-02-14T05:21:42;96073.06;;;5.42;60.20
81608;BME280;71022;48.122;11.576;2024-02-14T05:24:09;96062.25;;;5.28;60.83
81608;BME280;71022;48.122;11.576;2024-02-14T05:26:36;96065.06;;;5.23;61.02
81608;BME280;71022;48.122;11.576;2024-02-14T05:29:04;96063.09;;;5.15;61.13
81608;BME280;71022;48.122;11.576;2024-02-14T05:31:45;96058.38;;;5.07;61.28
81608;BME280;71022;48.122;11.576;2024-02-14T05:34:13;96058.47;;;5.02;61.70
81608;BME280;71022;48.122;11.576;2024-02-14T05:36:41;96068.97;;;5.09;61.85
81608;BME280;71022;48.122;11.576;2024-02-14T05:39:09;96067.38;;;5.08;61.70
81608;BME280;71022;48.122;11.576;2024-02-14T05:41:37;96077.50;;;5.16;61.72
81608;BME280;71022;48.122;11.576;2024-02-14T05:44:05;96078.94;;;5.35;61.27
81608;BME280;71022;48.122;11.576;2024-02-14T05:46:32;96082.34;;;5.41;60.75
81608;BME280;71022;48.122;11.576;2024-02-14T05:48:59;96079.94;;;5.39;61.44
81608;BME280;71022;48.122;11.576;2024-02-14T05:51:27;96074.00;;;5.59;59.97
81608;BME280;71022;48.122;11.576;2024-02-14T05:53:54;96082.03;;;5.65;60.10
81608;BME280;71022;48.122;11.576;2024-02-14T05:56:21;96073.81;;;5.56;59.56
81608;BME280;71022;48.122;11.576;2024-02-14T05:58:49;96077.31;;;5.70;59.52
81608;BME280;71022;48.122;11.576;2024-02-14T06:01:16;96081.44;;;5.68;59.62
81608;BME280;71022;48.122;11.576;2024-02-14T06:03:44;96076.88;;;5.54;59.87
81608;BME280;71022;48.122;11.576;2024-02-14T06:06:11;96088.19;;;5.48;59.99
81608;BME280;71022;48.122;11.576;2024-02-14T06:08:38;96091.78;;;5.57;59.48
81608;BME280;71022;48.122;11.576;2024-02-14T06:11:06;96094.38;;;5.62;60.06
81608;BME280;71022;48.122;11.576;2024-02-14T06:13:34;96097.63;;;5.64;59.95
81608;BME280;71022;48.122;11.576;2024-02-14T06:16:02;96097.41;;;5.61;60.05
81608;BME280;71022;48.122;11.576;2024-02-14T06:18:30;96095.00;;;5.59;59.90
81608;BME280;71022;48.122;11.576;2024-02-14T06:20:57;96090.28;;;5.51;60.55
81608;BME280;71022;48.122;11.576;2024-02-14T06:23:25;96093.75;;;5.65;59.88
81608;BME280;71022;48.122;11.576;2024-02-14T06:25:52;96092.03;;;5.69;60.06
81608;BME280;71022;48.122;11.576;2024-02-14T06:28:20;96099.09;;;5.70;59.42
81608;BME280;71022;48.122;11.576;2024-02-14T06:30:47;96108.00;;;5.84;59.47
81608;BME280;71022;48.122;11.576;2024-02-14T06:33:14;96112.25;;;5.90;59.09
81608;BME280;71022;48.122;11.576;2024-02-14T06:35:42;96110.56;;;6.03;58.76
81608;BME280;71022;48.122;11.576;2024-02-14T06:38:10;96111.25;;;5.86;58.70
81608;BME280;71022;48.122;11.576;2024-02-14T06:40:37;96109.72;;;5.80;59.33
81608;BME280;71022;48.122;11.576;2024-02-14T06:43:04;96114.78;;;5.87;58.78
81608;BME280;71022;48.122;11.576;2024-02-14T06:45:33;96109.88;;;5.75;58.58
81608;BME280;71022;48.122;11.576;2024-02-14T06:48:00;96109.72;;;5.80;58.45
81608;BME280;71022;48.122;11.576;2024-02-14T06:50:28;96108.56;;;5.73;59.16
81608;BME280;71022;48.122;11.576;2024-02-14T06:52:56;96109.91;;;5.84;58.80
81608;BME280;71022;48.122;11.576;2024-02-14T06:55:28;96110.25;;;6.04;58.14
81608;BME280;71022;48.122;11.576;2024-02-14T06:57:56;96113.78;;;6.05;57.99
81608;BME280;71022;48.122;11.576;2024-02-14T07:00:23;96114.59;;;6.05;57.49
81608;BME280;71022;48.122;11.576;2024-02-14T07:02:51;96116.91;;;6.21;57.83
81608;BME280;71022;48.122;11.576;2024-02-14T07:05:18;96117.25;;;6.28;57.61
81608;BME280;71022;48.122;11.576;2024-02-14T07:07:45;96127.53;;;6.31;57.16
81608;BME280;71022;48.122;11.576;2024-02-14T07:10:13;96121.75;;;6.24;56.66
81608;BME280;71022;48.122;11.576;2024-02-14T07:12:40;96135.59;;;6.36;56.77
81608;BME280;71022;48.122;11.576;2024-02-14T07:15:07;96132.50;;;6.29;56.97
81608;BME280;71022;48.122;11.576;2024-02-14T07:17:35;96139.53;;;6.21;56.56
81608;BME280;71022;48.122;11.576;2024-02-14T07:20:03;96136.84;;;6.30;56.76
81608;BME280;71022;48.122;11.576;2024-02-14T07:22:31;96134.84;;;6.44;56.16
81608;BME280;71022;48.122;11.576;2024-02-14T07:24:58;96140.69;;;6.59;55.45
81608;BME280;71022;48.122;11.576;2024-02-14T07:27:25;96153.84;;;6.66;55.36
81608;BME280;71022;48.122;11.576;2024-02-14T07:29:54;96145.38;;;6.67;55.35
81608;BME280;71022;48.122;11.576;2024-02-14T07:32:22;96149.34;;;6.61;54.63
81608;BME280;71022;48.122;11.576;2024-02-14T07:34:49;96152.91;;;6.62;54.80
81608;BME280;71022;48.122;11.576;2024-02-14T07:37:17;96150.34;;;6.65;55.04
81608;BME280;71022;48.122;11.576;2024-02-14T07:39:47;96159.66;;;6.64;54.85
81608;BME280;71022;48.122;11.576;2024-02-14T07:42:14;96154.84;;;6.70;54.45
81608;BME280;71022;48.122;11.576;2024-02-14T07:44:42;96154.69;;;6.75;54.51
81608;BME280;71022;48.122;11.576;2024-02-14T07:47:09;96161.59;;;6.73;54.69
81608;BME280;71022;48.122;11.576;2024-02-14T07:49:37;96158.91;;;6.81;54.13
81608;BME280;71022;48.122;11.576;2024-02-14T07:52:04;96158.00;;;6.94;53.93
81608;BME280;71022;48.122;11.576;2024-02-14T07:54:32;96167.28;;;6.93;53.67
81608;BME280;71022;48.122;11.576;2024-02-14T07:56:59;96161.56;;;7.03;53.43
81608;BME280;71022;48.122;11.576;2024-02-14T07:59:26;96159.25;;;6.88;53.76
81608;BME280;71022;48.122;11.576;2024-02-14T08:01:57;96157.53;;;7.01;53.22
81608;BME280;71022;48.122;11.576;2024-02-14T08:04:25;96161.41;;;7.08;53.23
81608;BME280;71022;48.122;11.576;2024-02-14T08:06:52;96164.47;;;7.07;53.41
81608;BME280;71022;48.122;11.576;2024-02-14T08:09:19;96167.38;;;7.10;53.71
81608;BME280;71022;48.122;11.576;2024-02-14T08:11:46;96168.97;;;7.20;53.46
81608;BME280;71022;48.122;11.576;2024-02-14T08:14:14;96173.16;;;7.17;53.50
81608;BME280;71022;48.122;11.576;2024-02-14T08:16:41;96164.34;;;7.29;53.06
81608;BME280;71022;48.122;11.576;2024-02-14T08:19:08;96163.88;;;7.36;52.89
81608;BME280;71022;48.122;11.576;2024-02-14T08:21:36;96168.38;;;7.32;52.84
81608;BME280;71022;48.122;11.576;2024-02-14T08:24:04;96167.88;;;7.30;53.03
81608;BME280;71022;48.122;11.576;2024-02-14T08:26:32;96173.22;;;7.35;53.13
81608;BME280;71022;48.122;11.576;2024-02-14T08:28:59;96168.25;;;7.54;52.56
81608;BME280;71022;48.122;11.576;2024-02-14T08:31:27;96174.00;;;7.44;53.18
81608;BME280;71022;48.122;11.576;2024-02-14T08:33:55;96179.97;;;7.46;53.39
81608;BME280;71022;48.122;11.576;2024-02-14T08:36:23;96179.50;;;7.61;52.91
81608;BME280;71022;48.122;11.576;2024-02-14T08:38:50;96177.25;;;7.63;52.72
81608;BME280;71022;48.122;11.576;2024-02-14T08:41:18;96174.34;;;7.59;52.39
81608;BME280;71022;48.122;11.576;2024-02-14T08:43:50;96170.66;;;7.81;52.73
81608;BME280;71022;48.122;11.576;2024-02-14T08:46:17;96171.13;;;7.92;52.20
81608;BME280;71022;48.122;11.576;2024-02-14T08:48:45;96163.09;;;8.04;51.80
81608;BME280;71022;48.122;11.576;2024-02-14T08:51:16;96166.16;;;8.11;51.32
81608;BME280;71022;48.122;11.576;2024-02-14T08:53:44;96164.22;;;8.20;50.95
81608;BME280;71022;48.122;11.576;2024-02-14T08:56:13;96167.09;;;8.23;50.49
81608;BME280;71022;48.122;11.576;2024-02-14T08:58:42;96160.19;;;8.17;50.87
81608;BME280;71022;48.122;11.576;2024-02-14T09:01:09;96173.97;;;8.55;50.48
81608;BME280;71022;48.122;11.576;2024-02-14T09:03:42;96171.34;;;8.76;49.93
81608;BME280;71022;48.122;11.576;2024-02-14T09:06:16;96178.41;;;8.85;49.37
81608;BME280;71022;48.122;11.576;2024-02-14T09:08:45;96184.50;;;8.91;49.02
81608;BME280;71022;48.122;11.576;2024-02-14T09:11:12;96171.25;;;8.93;48.97
81608;BME280;71022;48.122;11.576;2024-02-14T09:13:39;96174.59;;;9.07;48.87
81608;BME280;71022;48.122;11.576;2024-02-14T09:16:10;96164.22;;;9.21;49.04
81608;BME280;71022;48.122;11.576;2024-02-14T09:18:38;96168.41;;;9.48;48.10
81608;BME280;71022;48.122;11.576;2024-02-14T09:21:06;96173.63;;;9.62;47.68
81608;BME280;71022;48.122;11.576;2024-02-14T09:23:34;96166.28;;;9.74;47.26
81608;BME280;71022;48.122;11.576;2024-02-14T09:26:01;96165.09;;;9.84;47.42
81608;BME280;71022;48.122;11.576;2024-02-14T09:28:29;96153.56;;;10.11;46.56
81608;BME280;71022;48.122;11.576;2024-02-14T09:30:57;96158.53;;;10.18;46.25
81608;BME280;71022;48.122;11.576;2024-02-14T09:33:24;96153.44;;;10.28;45.91
81608;BME280;71022;48.122;11.576;2024-02-14T09:35:52;96162.56;;;10.20;46.14
81608;BME280;71022;48.122;11.576;2024-02-14T09:38:20;96157.06;;;10.20;45.45
81608;BME280;71022;48.122;11.576;2024-02-14T09:40:53;96162.34;;;10.25;45.83
81608;BME280;71022;48.122;11.576;2024-02-14T09:43:43;96160.53;;;10.29;45.62
81608;BME280;71022;48.122;11.576;2024-02-14T09:46:14;96167.19;;;10.40;45.52
81608;BME280;71022;48.122;11.576;2024-02-14T09:48:44;96159.94;;;10.57;45.66
81608;BME280;71022;48.122;11.576;2024-02-14T09:51:12;96153.25;;;10.45;44.86
81608;BME280;71022;48.122;11.576;2024-02-14T09:53:40;96159.03;;;10.32;45.58
81608;BME280;71022;48.122;11.576;2024-02-14T09:56:11;96155.13;;;10.53;46.00
81608;BME280;71022;48.122;11.576;2024-02-14T09:58:44;96153.09;;;10.63;45.68
81608;BME280;71022;48.122;11.576;2024-02-14T10:01:16;96146.91;;;10.66;45.85
81608;BME280;71022;48.122;11.576;2024-02-14T10:03:44;96158.72;;;10.90;46.00
81608;BME280;71022;48.122;11.576;2024-02-14T10:06:11;96144.66;;;10.92;45.26
81608;BME280;71022;48.122;11.576;2024-02-14T10:08:40;96153.34;;;10.94;45.54
81608;BME280;71022;48.122;11.576;2024-02-14T10:11:21;96147.50;;;10.83;45.74
81608;BME280;71022;48.122;11.576;2024-02-14T10:13:50;96149.44;;;10.71;45.00
81608;BME280;71022;48.122;11.576;2024-02-14T10:16:18;96145.22;;;10.85;45.02
81608;BME280;71022;48.122;11.576;2024-02-14T10:18:48;96148.66;;;10.94;44.88
81608;BME280;71022;48.122;11.576;2024-02-14T10:21:17;96137.22;;;10.92;44.74
81608;BME280;71022;48.122;11.576;2024-02-14T10:23:46;96135.94;;;11.14;44.89
81608;BME280;71022;48.122;11.576;2024-02-14T10:26:14;96144.44;;;11.21;44.08
81608;BME280;71022;48.122;11.576;2024-02-14T10:28:44;96137.91;;;11.26;44.14
81608;BME280;71022;48.122;11.576;2024-02-14T10:31:16;96129.31;;;11.27;43.59
81608;BME280;71022;48.122;11.576;2024-02-14T10:33:44;96130.41;;;11.62;44.65
81608;BME280;71022;48.122;11.576;2024-02-14T10:36:12;96137.28;;;11.81;44.30
81608;BME280;71022;48.122;11.576;2024-02-14T10:38:41;96120.19;;;11.87;43.93
81608;BME280;71022;48.122;11.576;2024-02-14T10:41:10;96127.63;;;11.87;43.48
81608;BME280;71022;48.122;11.576;2024-02-14T10:43:40;96127.53;;;11.71;43.61
81608;BME280;71022;48.122;11.576;2024-02-14T10:46:13;96134.06;;;11.66;43.87
81608;BME280;71022;48.122;11.576;2024-02-14T10:48:42;96130.50;;;11.66;43.86
81608;BME280;71022;48.122;11.576;2024-02-14T10:51:12;96131.47;;;11.70;44.22
81608;BME280;71022;48.122;11.576;2024-02-14T10:53:40;96131.34;;;11.54;44.73
81608;BME280;71022;48.122;11.576;2024-02-14T10:56:18;96126.50;;;11.63;44.17
81608;BME280;71022;48.122;11.576;2024-02-14T10:58:51;96131.06;;;11.84;44.24
81608;BME280;71022;48.122;11.576;2024-02-14T11:01:22;96125.94;;;12.10;44.07
81608;BME280;71022;48.122;11.576;2024-02-14T11:03:52;96121.28;;;12.26;44.13
81608;BME280;71022;48.122;11.576;2024-02-14T11:06:19;96122.84;;;12.39;44.01
81608;BME280;71022;48.122;11.576;2024-02-14T11:09:13;96119.13;;;12.47;43.93
81608;BME280;71022;48.122;11.576;2024-02-14T11:11:42;96117.88;;;12.45;43.98
81608;BME280;71022;48.122;11.576;2024-02-14T11:14:15;96124.91;;;12.58;43.97
81608;BME280;71022;48.122;11.576;2024-02-14T11:16:45;96125.03;;;12.77;43.84
81608;BME280;71022;48.122;11.576;2024-02-14T11:19:13;96120.16;;;12.86;43.78
81608;BME280;71022;48.122;11.576;2024-02-14T11:21:43;96119.41;;;12.73;43.64
81608;BME280;71022;48.122;11.576;2024-02-14T11:24:12;96107.88;;;12.84;43.80
81608;BME280;71022;48.122;11.576;2024-02-14T11:29:15;96114.97;;;12.85;43.64
81608;BME280;71022;48.122;11.576;2024-02-14T11:31:57;96111.31;;;12.96;43.76
81608;BME280;71022;48.122;11.576;2024-02-14T11:34:25;96106.63;;;12.97;43.55
81608;BME280;71022;48.122;11.576;2024-02-14T11:36:52;96106.44;;;12.90;43.72
81608;BME280;71022;48.122;11.576;2024-02-14T11:39:22;96102.53;;;12.91;43.79
81608;BME280;71022;48.122;11.576;2024-02-14T11:41:49;96110.34;;;12.89;43.72
81608;BME280;71022;48.122;11.576;2024-02-14T11:44:19;96102.09;;;12.89;44.35
81608;BME280;71022;48.122;11.576;2024-02-14T11:46:47;96105.47;;;12.98;43.88
81608;BME280;71022;48.122;11.576;2024-02-14T11:49:15;96090.06;;;12.97;43.61
81608;BME280;71022;48.122;11.576;2024-02-14T11:51:44;96094.44;;;12.98;43.50
81608;BME280;71022;48.122;11.576;2024-02-14T11:54:11;96091.69;;;12.98;43.31
81608;BME280;71022;48.122;11.576;2024-02-14T11:56:39;96079.13;;;13.00;43.38
81608;BME280;71022;48.122;11.576;2024-02-14T11:59:07;96089.53;;;13.07;43.09
81608;BME280;71022;48.122;11.576;2024-02-14T12:01:36;96086.59;;;13.00;43.81
81608;BME280;71022;48.122;11.576;2024-02-14T12:04:07;96081.41;;;13.10;43.33
81608;BME280;71022;48.122;11.576;2024-02-14T12:06:40;96076.22;;;13.09;43.51
81608;BME280;71022;48.122;11.576;2024-02-14T12:09:11;96072.84;;;13.15;43.44
81608;BME280;71022;48.122;11.576;2024-02-14T12:11:41;96075.69;;;13.19;43.44
81608;BME280;71022;48.122;11.576;2024-02-14T12:14:10;96077.28;;;13.20;43.03
81608;BME280;71022;48.122;11.576;2024-02-14T12:16:38;96085.88;;;13.34;42.77
81608;BME280;71022;48.122;11.576;2024-02-14T12:19:15;96094.31;;;13.41;42.55
81608;BME280;71022;48.122;11.576;2024-02-14T12:21:44;96089.84;;;13.52;42.13
81608;BME280;71022;48.122;11.576;2024-02-14T12:24:12;96084.34;;;13.52;42.17
81608;BME280;71022;48.122;11.576;2024-02-14T12:26:43;96093.44;;;13.37;42.58
81608;BME280;71022;48.122;11.576;2024-02-14T12:29:13;96090.22;;;13.35;42.71
81608;BME280;71022;48.122;11.576;2024-02-14T12:31:41;96091.66;;;13.29;42.83
81608;BME280;71022;48.122;11.576;2024-02-14T12:34:11;96095.75;;;13.35;42.65
81608;BME280;71022;48.122;11.576;2024-02-14T12:36:39;96080.09;;;13.39;42.23
81608;BME280;71022;48.122;11.576;2024-02-14T12:39:06;96090.06;;;13.44;42.99
81608;BME280;71022;48.122;11.576;2024-02-14T12:41:36;96077.59;;;13.69;42.78
81608;BME280;71022;48.122;11.576;2024-02-14T12:44:06;96085.09;;;13.88;42.32
81608;BME280;71022;48.122;11.576;2024-02-14T12:46:34;96082.63;;;14.02;42.00
81608;BME280;71022;48.122;11.576;2024-02-14T12:49:05;96086.41;;;14.13;41.90
81608;BME280;71022;48.122;11.576;2024-02-14T12:51:32;96083.38;;;14.18;41.46
81608;BME280;71022;48.122;11.576;2024-02-14T12:54:00;96087.84;;;14.07;41.78
81608;BME280;71022;48.122;11.576;2024-02-14T12:56:27;96094.09;;;14.23;42.11
81608;BME280;71022;48.122;11.576;2024-02-14T12:58:54;96091.88;;;14.09;42.07
81608;BME280;71022;48.122;11.576;2024-02-14T13:01:22;96093.81;;;14.28;44.54
81608;BME280;71022;48.122;11.576;2024-02-14T13:03:49;96093.00;;;13.89;45.06
81608;BME280;71022;48.122;11.576;2024-02-14T13:06:16;96102.94;;;13.74;47.21